Agness, Oregon
Current Conditions -  °F | °C
As of 7:06 PM on Monday 22 Dec 2014 (Local Time) from KBOK Reporting Station
Moderate Fog Moderate Fog  
Wind Chill: 13°   Ceiling: 100
Heat Index: 13°   Visibility: 0.25mi
Dew Point: 13°   Wind: 0mph
Humidity: 100%   Direction: NA
Pressure: 30.34"   Gusts: NA
Location:  42.56°N, 124.07°W
Report Text: KBOK 230306Z AUTO 00000KT 1/4SM FG OVC001 13/13 A3034 RMK AO2
Loading
Personal Weather Stations






























Interactive Weather Map New forecast layout! Learn more

10-Day Weather Forecast

Advertisements
Track Severe Weather on mobile